Time;durP1;ratioP1;P1;durP2;ratioP2;P2;SDS_P1;SDS_P2;PMS_P1;PMS_P2;Temp;Humidity;BMP_temperature;BMP_pressure;BME280_temperature;BME280_humidity;BME280_pressure;Samples;Min_cycle;Max_cycle;Signal;HPM_P1;HPM_P2
2023/01/01 00:01:12;;;;;;;150.80;96.33;;;;;;;9.12;69.36;96036.06;5112775;28;20221;-48
2023/01/01 00:03:40;;;;;;;166.93;102.80;;;;;;;9.12;69.36;96037.81;5112839;28;20645;-47
2023/01/01 00:06:08;;;;;;;161.77;103.70;;;;;;;9.11;69.25;96033.59;5112979;28;20189;-47
2023/01/01 00:08:35;;;;;;;155.27;103.53;;;;;;;9.11;69.26;96039.53;5113026;28;20193;-53
2023/01/01 00:11:01;;;;;;;168.57;107.67;;;;;;;9.09;69.39;96043.09;5112910;28;20227;-45
2023/01/01 00:13:28;;;;;;;159.93;104.80;;;;;;;9.08;69.23;96052.47;5112793;28;20185;-47
2023/01/01 00:15:55;;;;;;;162.23;102.47;;;;;;;9.08;69.23;96051.66;5112570;28;20177;-47
2023/01/01 00:18:22;;;;;;;167.93;107.93;;;;;;;9.07;69.23;96047.44;5112799;28;20196;-46
2023/01/01 00:20:50;;;;;;;169.87;108.00;;;;;;;9.04;69.31;96051.84;5112289;28;20289;-46
2023/01/01 00:23:17;;;;;;;162.17;108.13;;;;;;;9.04;69.30;96051.84;5112604;28;20294;-45
2023/01/01 00:25:44;;;;;;;166.20;108.70;;;;;;;9.02;69.30;96050.28;5112875;28;20234;-47
2023/01/01 00:28:11;;;;;;;163.10;108.90;;;;;;;8.85;69.26;96028.38;5111420;28;20189;-46
2023/01/01 00:30:41;;;;;;;169.00;111.93;;;;;;;8.99;69.31;96056.41;5112637;28;20207;-45
2023/01/01 00:33:07;;;;;;;177.30;115.90;;;;;;;8.98;69.37;96064.16;5114260;28;20221;-47
2023/01/01 00:35:34;;;;;;;162.77;109.83;;;;;;;8.97;69.34;96062.50;5131643;27;20191;-46
2023/01/01 00:38:03;;;;;;;176.80;113.17;;;;;;;8.96;69.40;96060.88;5133068;27;20267;-47
2023/01/01 00:40:32;;;;;;;170.53;109.57;;;;;;;8.94;69.38;96053.34;5135090;27;20239;-47
2023/01/01 00:42:59;;;;;;;167.97;113.77;;;;;;;8.94;69.42;96055.88;5133313;27;20331;-46
2023/01/01 00:45:26;;;;;;;182.10;116.17;;;;;;;8.91;69.45;96053.50;5132572;27;20649;-46
2023/01/01 00:47:54;;;;;;;166.83;113.20;;;;;;;8.90;69.39;96059.53;5132905;27;20237;-46
2023/01/01 00:50:21;;;;;;;176.50;113.90;;;;;;;8.76;69.38;96041.69;5132846;27;20180;-52
2023/01/01 00:52:48;;;;;;;178.33;114.10;;;;;;;8.89;69.39;96065.53;5132236;27;20188;-45
2023/01/01 00:55:17;;;;;;;176.13;114.97;;;;;;;8.87;69.48;96064.81;5132009;27;20794;-47
2023/01/01 00:57:44;;;;;;;169.73;114.17;;;;;;;8.87;69.46;96061.44;5133548;27;20252;-47
2023/01/01 01:00:12;;;;;;;176.50;111.80;;;;;;;8.82;69.45;96066.84;5133528;27;20204;-46
2023/01/01 01:02:39;;;;;;;178.43;114.67;;;;;;;8.84;69.36;96072.66;5132156;27;20655;-46
2023/01/01 01:05:06;;;;;;;176.07;115.90;;;;;;;8.83;69.38;96060.00;5131797;27;20192;-47
2023/01/01 01:07:35;;;;;;;173.47;112.27;;;;;;;8.83;69.44;96052.34;5132241;27;20191;-46
2023/01/01 01:10:02;;;;;;;172.90;113.57;;;;;;;8.81;69.47;96055.00;5131735;27;20208;-47
2023/01/01 01:12:30;;;;;;;169.27;113.97;;;;;;;8.79;69.32;96049.97;5132502;27;20181;-46
2023/01/01 01:14:57;;;;;;;171.07;109.40;;;;;;;8.77;69.46;96049.25;5131925;27;20189;-46
2023/01/01 01:17:24;;;;;;;176.67;112.83;;;;;;;8.76;69.33;96057.84;5132255;27;20188;-47
2023/01/01 01:19:50;;;;;;;164.83;111.43;;;;;;;8.76;69.50;96057.84;5131558;27;20541;-47
2023/01/01 01:22:17;;;;;;;169.20;109.67;;;;;;;8.72;69.43;96048.72;5131847;27;20192;-46
2023/01/01 01:24:44;;;;;;;164.57;109.17;;;;;;;8.73;69.47;96052.91;5131900;27;20302;-47
2023/01/01 01:27:11;;;;;;;174.73;109.23;;;;;;;8.72;69.32;96048.72;5131850;27;20260;-46
2023/01/01 01:29:39;;;;;;;168.80;108.20;;;;;;;8.72;69.46;96042.78;5132191;27;20192;-47
2023/01/01 01:32:06;;;;;;;171.43;107.37;;;;;;;8.68;69.40;96038.78;5132222;27;20245;-46
2023/01/01 01:34:32;;;;;;;165.47;106.63;;;;;;;8.69;69.36;96043.81;5133089;27;20640;-48
2023/01/01 01:36:59;;;;;;;171.83;110.47;;;;;;;8.67;69.43;96047.34;5135485;27;20188;-47
2023/01/01 01:39:26;;;;;;;163.30;108.07;;;;;;;8.66;69.49;96053.38;5132475;27;20341;-45
2023/01/01 01:41:53;;;;;;;156.90;106.20;;;;;;;8.50;69.51;96030.50;5131447;27;20227;-47
2023/01/01 01:44:51;;;;;;;158.90;105.37;;;;;;;8.64;69.66;96058.56;5131475;27;20195;-46
2023/01/01 01:47:20;;;;;;;157.77;105.20;;;;;;;8.56;69.38;96039.53;5131203;27;20913;-48
2023/01/01 01:49:48;;;;;;;161.57;103.40;;;;;;;8.61;69.39;96050.28;5131136;27;20268;-49
2023/01/01 01:52:15;;;;;;;165.20;103.23;;;;;;;8.57;69.61;96036.06;5131094;27;20609;-46
2023/01/01 01:54:42;;;;;;;167.10;104.57;;;;;;;8.59;69.52;96039.34;5131256;27;20695;-48
2023/01/01 01:57:12;;;;;;;166.20;102.17;;;;;;;8.58;69.44;96035.97;5131070;27;20268;-46
2023/01/01 01:59:43;;;;;;;148.20;100.47;;;;;;;8.58;69.64;96045.34;5131118;27;20192;-47
2023/01/01 02:02:17;;;;;;;149.57;100.07;;;;;;;8.57;69.40;96051.38;5130867;27;20200;-45
2023/01/01 02:04:45;;;;;;;146.87;95.90;;;;;;;8.54;69.61;96053.19;5131046;27;21390;-46
2023/01/01 02:07:14;;;;;;;157.23;100.53;;;;;;;8.54;69.40;96053.19;5131208;27;20660;-45
2023/01/01 02:09:41;;;;;;;151.53;98.63;;;;;;;8.54;69.79;96057.47;5131655;27;20648;-47
2023/01/01 02:12:08;;;;;;;144.37;94.37;;;;;;;8.50;69.43;96059.38;5131275;27;20690;-46
2023/01/01 02:14:35;;;;;;;133.73;90.57;;;;;;;8.53;69.74;96066.84;5132190;27;20257;-48
2023/01/01 02:17:09;;;;;;;141.37;93.00;;;;;;;8.52;69.73;96067.75;5131446;27;20192;-46
2023/01/01 02:19:51;;;;;;;135.73;86.77;;;;;;;8.52;69.85;96072.03;5130809;27;20187;-46
2023/01/01 02:22:27;;;;;;;130.73;87.77;;;;;;;8.50;69.67;96061.09;5130477;27;20197;-46
2023/01/01 02:25:09;;;;;;;127.57;82.53;;;;;;;8.49;69.85;96064.56;5130857;27;20613;-47
2023/01/01 02:27:48;;;;;;;129.60;84.97;;;;;;;8.49;69.70;96054.38;5130534;27;20737;-46
2023/01/01 02:30:16;;;;;;;129.53;82.73;;;;;;;8.49;69.80;96065.38;5130553;27;20191;-47
2023/01/01 02:32:47;;;;;;;122.23;81.63;;;;;;;8.48;69.85;96062.94;5130773;27;20192;-47
2023/01/01 02:35:34;;;;;;;122.47;81.33;;;;;;;8.47;69.87;96061.31;5130560;27;20245;-45
2023/01/01 02:38:09;;;;;;;120.20;77.60;;;;;;;8.46;69.82;96059.63;5130262;27;20192;-46
2023/01/01 02:40:40;;;;;;;116.60;76.87;;;;;;;8.25;69.96;96026.03;5129987;27;20227;-46
2023/01/01 02:43:07;;;;;;;111.17;74.50;;;;;;;8.44;69.67;96052.09;5130533;27;20180;-46
2023/01/01 02:45:35;;;;;;;111.00;71.40;;;;;;;8.45;69.83;96056.28;5130186;27;20653;-46
2023/01/01 02:48:04;;;;;;;110.63;72.77;;;;;;;8.44;69.76;96054.66;5130286;27;20188;-47
2023/01/01 02:50:32;;;;;;;105.37;71.33;;;;;;;8.25;69.80;96015.84;5129896;27;20743;-47
2023/01/01 02:53:11;;;;;;;111.07;70.20;;;;;;;8.40;69.79;96047.28;5129396;27;20226;-47
2023/01/01 02:55:49;;;;;;;109.43;70.17;;;;;;;8.42;69.69;96047.97;5130209;27;20199;-46
2023/01/01 03:01:19;;;;;;;101.87;65.87;;;;;;;8.38;70.08;96044.81;5130179;27;20223;-46
2023/01/01 03:03:56;;;;;;;98.13;65.67;;;;;;;8.37;70.00;96040.63;5129966;27;20709;-48
2023/01/01 03:06:27;;;;;;;103.80;65.20;;;;;;;8.38;69.81;96044.81;5129949;27;20198;-47
2023/01/01 03:09:08;;;;;;;106.43;64.93;;;;;;;8.32;69.76;96029.84;5130141;28;20612;-47
2023/01/01 03:11:40;;;;;;;99.17;63.20;;;;;;;8.35;69.64;96039.88;5130315;28;20572;-46
2023/01/01 03:14:16;;;;;;;94.13;62.67;;;;;;;8.34;69.68;96040.78;5129872;28;20669;-45
2023/01/01 03:16:48;;;;;;;94.80;60.17;;;;;;;8.35;69.71;96037.31;5130154;28;20191;-46
2023/01/01 03:19:19;;;;;;;91.20;59.60;;;;;;;8.35;69.76;96047.50;5129828;28;20188;-48
2023/01/01 03:21:51;;;;;;;98.97;63.33;;;;;;;8.35;69.82;96054.34;5130141;28;20224;-47
2023/01/01 03:24:24;;;;;;;91.47;59.47;;;;;;;8.34;69.75;96063.72;5129691;28;20237;-46
2023/01/01 03:26:55;;;;;;;90.83;57.63;;;;;;;8.35;69.87;96067.91;5130225;28;20849;-46
2023/01/01 03:29:23;;;;;;;88.77;57.93;;;;;;;8.35;69.83;96060.25;5130501;28;20181;-47
2023/01/01 03:31:55;;;;;;;95.93;58.80;;;;;;;8.34;70.02;96058.63;5130312;28;20218;-45
2023/01/01 03:34:27;;;;;;;98.33;59.90;;;;;;;8.33;69.70;96038.31;5129964;28;20783;-48
2023/01/01 03:36:59;;;;;;;90.57;57.83;;;;;;;8.25;69.81;96037.03;5130160;28;20199;-49
2023/01/01 03:39:31;;;;;;;88.87;56.33;;;;;;;8.32;69.91;96047.69;5129458;28;20220;-45
2023/01/01 03:42:09;;;;;;;92.13;58.00;;;;;;;8.30;69.76;96057.97;5130189;28;20212;-47
2023/01/01 03:44:44;;;;;;;90.73;57.60;;;;;;;8.26;69.91;96051.44;5129655;28;20586;-47
2023/01/01 03:47:12;;;;;;;81.67;53.10;;;;;;;8.29;69.91;96055.53;5129494;28;20635;-46
2023/01/01 03:49:40;;;;;;;95.20;55.53;;;;;;;8.29;69.75;96051.25;5129734;28;20176;-46
2023/01/01 03:52:21;;;;;;;86.40;55.57;;;;;;;8.28;69.80;96047.03;5129175;28;20189;-46
2023/01/01 03:54:57;;;;;;;80.87;52.40;;;;;;;8.15;69.77;96040.22;5129799;28;20184;-46
2023/01/01 03:57:32;;;;;;;86.33;54.00;;;;;;;8.18;69.77;96033.22;5129310;28;20241;-46
2023/01/01 04:00:04;;;;;;;82.50;52.40;;;;;;;8.20;69.76;96046.69;5129573;28;20712;-47
2023/01/01 04:02:39;;;;;;;83.13;53.67;;;;;;;8.22;69.70;96055.06;5129584;27;20716;-48
2023/01/01 04:05:10;;;;;;;81.40;52.93;;;;;;;8.03;69.60;96018.81;5133733;27;20179;-46
2023/01/01 04:07:37;;;;;;;84.70;51.67;;;;;;;8.17;69.85;96046.88;5133079;27;20668;-46
2023/01/01 04:10:15;;;;;;;83.07;51.50;;;;;;;8.23;69.89;96054.13;5133054;27;20549;-49
2023/01/01 04:12:45;;;;;;;78.80;49.93;;;;;;;8.21;69.86;96063.63;5132852;27;20176;-49
2023/01/01 04:15:11;;;;;;;78.67;49.50;;;;;;;8.20;69.95;96056.88;5133262;27;20227;-45
2023/01/01 04:17:40;;;;;;;74.77;49.80;;;;;;;8.20;69.95;96061.13;5132821;27;20283;-48
2023/01/01 04:20:08;;;;;;;74.50;48.40;;;;;;;8.19;69.89;96060.31;5133111;27;20545;-46
2023/01/01 04:22:34;;;;;;;76.60;48.87;;;;;;;8.19;69.56;96062.06;5132723;27;20269;-47
2023/01/01 04:25:01;;;;;;;73.60;46.37;;;;;;;8.17;69.77;96057.06;5133267;27;20188;-45
2023/01/01 04:27:28;;;;;;;72.03;47.30;;;;;;;8.06;69.79;96039.03;5132588;27;20203;-49
2023/01/01 04:29:55;;;;;;;72.37;45.97;;;;;;;8.15;69.83;96056.31;5133498;27;20196;-45
2023/01/01 04:32:22;;;;;;;73.47;46.03;;;;;;;8.15;69.62;96056.31;5135181;27;20188;-46
2023/01/01 04:34:50;;;;;;;67.07;44.80;;;;;;;8.12;69.89;96056.50;5134362;27;20224;-47
2023/01/01 04:37:17;;;;;;;70.43;44.90;;;;;;;8.13;69.60;96060.69;5133014;27;20625;-48
2023/01/01 04:39:43;;;;;;;69.90;45.87;;;;;;;8.12;69.64;96060.75;5132437;27;20284;-46
2023/01/01 04:42:10;;;;;;;70.30;44.43;;;;;;;8.08;69.61;96052.50;5132762;27;20227;-46
2023/01/01 04:44:37;;;;;;;74.57;45.27;;;;;;;8.10;69.64;96060.88;5132885;27;20192;-47
2023/01/01 04:47:04;;;;;;;72.00;44.33;;;;;;;8.08;69.79;96062.69;5133117;27;20192;-48
2023/01/01 04:49:31;;;;;;;68.33;44.63;;;;;;;8.08;69.74;96060.16;5133153;27;20188;-45
2023/01/01 04:51:59;;;;;;;69.10;44.03;;;;;;;8.07;69.87;96055.13;5132639;27;20204;-45
2023/01/01 04:54:26;;;;;;;75.47;45.87;;;;;;;8.04;69.83;96051.84;5134281;27;20188;-47
2023/01/01 04:56:53;;;;;;;67.80;44.27;;;;;;;8.03;69.62;96050.22;5134036;27;20244;-46
2023/01/01 04:59:20;;;;;;;67.20;43.83;;;;;;;8.02;69.62;96052.84;5132703;27;20196;-47
2023/01/01 05:01:46;;;;;;;68.20;43.77;;;;;;;8.01;69.91;96053.75;5132853;27;20227;-46
2023/01/01 05:04:15;;;;;;;63.77;41.80;;;;;;;8.00;69.89;96059.75;5132539;27;20189;-46
2023/01/01 05:06:42;;;;;;;70.10;43.50;;;;;;;8.02;69.84;96063.03;5132847;27;20183;-48
2023/01/01 05:09:11;;;;;;;68.73;43.37;;;;;;;8.02;69.91;96060.47;5131789;27;20570;-47
2023/01/01 05:11:38;;;;;;;69.23;43.80;;;;;;;8.02;69.84;96071.50;5132627;27;20202;-49
2023/01/01 05:14:05;;;;;;;68.07;43.10;;;;;;;8.02;69.99;96074.03;5132436;27;20185;-46
2023/01/01 05:16:34;;;;;;;66.23;42.77;;;;;;;8.03;69.80;96072.31;5131961;27;20196;-46
2023/01/01 05:19:01;;;;;;;71.17;43.60;;;;;;;7.95;69.94;96059.22;5132381;27;20192;-46
2023/01/01 05:21:31;;;;;;;65.43;42.30;;;;;;;8.01;69.85;96069.03;5131940;27;20208;-46
2023/01/01 05:23:59;;;;;;;64.67;40.97;;;;;;;8.00;69.86;96073.31;5131987;27;20188;-46
2023/01/01 05:26:30;;;;;;;67.40;42.33;;;;;;;7.97;69.71;96065.03;5131744;27;20306;-47
2023/01/01 05:28:58;;;;;;;69.50;43.47;;;;;;;7.79;69.95;96041.44;5132400;27;20188;-46
2023/01/01 05:31:27;;;;;;;72.73;44.63;;;;;;;7.97;70.07;96078.59;5131890;27;20211;-46
2023/01/01 05:33:54;;;;;;;64.80;42.50;;;;;;;7.96;69.80;96071.03;5132234;27;20185;-46
2023/01/01 05:36:23;;;;;;;66.33;41.13;;;;;;;7.95;69.85;96088.06;5131464;27;20595;-47
2023/01/01 05:38:51;;;;;;;65.80;42.33;;;;;;;7.95;69.85;96082.97;5131354;27;20569;-46
2023/01/01 05:41:19;;;;;;;59.60;40.90;;;;;;;7.94;69.67;96081.28;5131681;27;20303;-46
2023/01/01 05:43:48;;;;;;;62.07;40.77;;;;;;;7.95;69.73;96084.69;5131524;27;20607;-46
2023/01/01 05:46:17;;;;;;;67.30;42.73;;;;;;;7.94;69.96;96083.84;5131626;27;20266;-49
2023/01/01 05:48:44;;;;;;;67.37;41.07;;;;;;;7.86;69.68;96070.75;5132163;27;20203;-48
2023/01/01 05:51:13;;;;;;;62.47;41.13;;;;;;;7.94;69.86;96085.56;5131413;27;20192;-46
2023/01/01 05:53:40;;;;;;;65.73;40.37;;;;;;;7.93;69.86;96079.66;5131748;27;20188;-47
2023/01/01 05:56:08;;;;;;;66.10;40.73;;;;;;;7.93;69.88;96082.22;5131288;27;20188;-47
2023/01/01 05:58:36;;;;;;;63.97;40.40;;;;;;;7.94;69.84;96085.56;5131234;27;20252;-46
2023/01/01 06:01:09;;;;;;;60.97;38.70;;;;;;;7.94;69.69;96091.47;5131121;27;20180;-45
2023/01/01 06:03:36;;;;;;;60.30;38.50;;;;;;;7.84;69.88;96066.63;5130960;27;20196;-46
2023/01/01 06:06:04;;;;;;;59.20;37.63;;;;;;;7.94;69.73;96099.13;5130725;27;20188;-46
2023/01/01 06:08:31;;;;;;;58.67;37.87;;;;;;;7.96;69.74;96089.69;5130861;27;20196;-47
2023/01/01 06:10:59;;;;;;;66.73;40.53;;;;;;;7.99;69.79;96091.25;5130886;27;20192;-45
2023/01/01 06:13:26;;;;;;;54.77;36.67;;;;;;;7.99;69.64;96084.41;5131194;27;20184;-47
2023/01/01 06:15:55;;;;;;;55.73;37.27;;;;;;;8.01;69.61;96087.69;5130827;27;20188;-46
2023/01/01 06:18:23;;;;;;;59.27;36.27;;;;;;;8.04;69.46;96092.63;5130693;27;20220;-46
2023/01/01 06:20:51;;;;;;;55.03;35.70;;;;;;;8.09;69.60;96094.91;5130664;27;20632;-45
2023/01/01 06:23:18;;;;;;;59.27;37.10;;;;;;;8.01;69.54;96074.94;5130101;27;20226;-47
2023/01/01 06:25:45;;;;;;;53.93;36.37;;;;;;;7.98;69.36;96061.56;5130663;27;20621;-46
2023/01/01 06:28:12;;;;;;;56.57;36.00;;;;;;;7.78;69.27;96025.34;5130437;27;20193;-46
2023/01/01 06:30:39;;;;;;;55.10;33.83;;;;;;;8.34;69.17;96101.97;5130375;27;20180;-47
2023/01/01 06:33:05;;;;;;;49.93;32.97;;;;;;;8.52;68.79;96097.53;5130442;27;20223;-47
2023/01/01 06:35:34;;;;;;;47.40;32.40;;;;;;;8.71;68.12;96090.41;5131027;27;20596;-47
2023/01/01 06:38:00;;;;;;;48.67;32.40;;;;;;;8.92;68.04;96093.41;5130270;27;20188;-46
2023/01/01 06:40:27;;;;;;;46.73;32.07;;;;;;;9.21;67.50;96106.97;5130259;27;20576;-47
2023/01/01 06:42:54;;;;;;;47.20;31.07;;;;;;;9.49;67.03;96112.91;5130069;27;20208;-47
2023/01/01 06:45:21;;;;;;;43.87;30.63;;;;;;;9.80;67.19;96112.63;5130349;27;20595;-48
2023/01/01 06:47:47;;;;;;;51.37;32.30;;;;;;;10.11;66.93;96123.41;5130225;27;20678;-46
2023/01/01 06:50:14;;;;;;;49.30;32.83;;;;;;;10.43;66.66;96128.19;5130304;27;20200;-48
2023/01/01 06:52:48;;;;;;;51.13;33.73;;;;;;;10.75;66.32;96126.88;5130113;27;20196;-46
2023/01/01 06:55:14;;;;;;;53.27;35.97;;;;;;;11.08;66.12;96125.47;5112652;27;20192;-47
2023/01/01 06:57:41;;;;;;;55.87;36.70;;;;;;;11.39;65.93;96134.41;5130141;27;20184;-47
2023/01/01 07:00:09;;;;;;;55.40;37.60;;;;;;;11.71;65.62;96128.78;5130277;27;20676;-47
2023/01/01 07:02:36;;;;;;;59.77;40.33;;;;;;;12.01;65.12;96136.88;5130521;27;20227;-45
2023/01/01 07:05:03;;;;;;;66.00;42.37;;;;;;;12.31;64.76;96133.00;5130355;27;20176;-47
2023/01/01 07:07:30;;;;;;;58.57;40.97;;;;;;;12.61;64.59;96137.63;5130235;28;20192;-46
2023/01/01 07:09:58;;;;;;;62.50;43.63;;;;;;;12.87;63.91;96122.81;5130103;28;20199;-48
2023/01/01 07:12:24;;;;;;;61.67;43.47;;;;;;;13.22;63.68;96135.56;5130359;28;20199;-47
2023/01/01 07:14:51;;;;;;;70.17;45.80;;;;;;;13.51;63.20;96127.31;5130164;28;20567;-49
2023/01/01 07:17:18;;;;;;;77.33;47.57;;;;;;;13.82;62.63;96133.47;5130418;28;20191;-47
2023/01/01 07:19:45;;;;;;;74.03;47.37;;;;;;;14.12;62.16;96129.34;5130410;28;20195;-46
2023/01/01 07:22:12;;;;;;;72.03;49.33;;;;;;;14.41;61.95;96126.97;5130177;28;20208;-47
2023/01/01 07:24:39;;;;;;;77.80;50.73;;;;;;;14.72;61.46;96126.13;5130182;28;20184;-46
2023/01/01 07:27:07;;;;;;;75.93;50.03;;;;;;;15.04;60.83;96126.00;5130264;28;20233;-46
2023/01/01 07:29:34;;;;;;;74.60;49.50;;;;;;;15.37;60.41;96128.38;5130429;28;20196;-48
2023/01/01 07:32:01;;;;;;;73.97;49.33;;;;;;;15.68;59.94;96130.00;5129929;28;20189;-48
2023/01/01 07:34:28;;;;;;;74.97;50.10;;;;;;;16.00;59.46;96134.09;5130282;28;20192;-47
2023/01/01 07:36:55;;;;;;;65.70;46.83;;;;;;;16.30;59.02;96133.94;5129855;28;20253;-47
2023/01/01 07:39:22;;;;;;;67.40;47.50;;;;;;;16.56;58.52;96123.03;5133003;27;20223;-46
2023/01/01 07:41:48;;;;;;;70.47;47.33;;;;;;;16.84;58.13;96126.56;5133771;27;20185;-47
2023/01/01 07:44:17;;;;;;;76.57;47.10;;;;;;;17.05;57.59;96128.91;5134191;27;20192;-47
2023/01/01 07:46:43;;;;;;;67.83;47.13;;;;;;;17.19;57.49;96138.78;5134046;27;20193;-47
2023/01/01 07:49:10;;;;;;;69.50;49.97;;;;;;;17.22;57.20;96127.34;5133970;27;20199;-46
2023/01/01 07:51:37;;;;;;;66.60;46.73;;;;;;;17.18;57.33;96131.16;5133285;27;20184;-48
2023/01/01 07:54:04;;;;;;;71.00;49.13;;;;;;;17.08;57.38;96125.22;5133793;27;20188;-47
2023/01/01 07:56:31;;;;;;;68.93;49.17;;;;;;;17.02;57.40;96127.44;5133145;27;20188;-47
2023/01/01 07:58:58;;;;;;;75.43;49.93;;;;;;;16.99;57.34;96126.88;5133442;27;20185;-48
2023/01/01 08:01:26;;;;;;;66.33;48.80;;;;;;;16.95;57.07;96136.69;5133515;27;20181;-46
2023/01/01 08:03:53;;;;;;;70.07;50.87;;;;;;;16.86;57.09;96136.72;5133495;27;20215;-48
2023/01/01 08:06:21;;;;;;;67.43;50.13;;;;;;;16.94;56.72;96135.06;5133405;27;20377;-46
2023/01/01 08:08:47;;;;;;;77.20;52.47;;;;;;;17.24;55.75;96139.16;5133774;27;20189;-46
2023/01/01 08:11:14;;;;;;;75.13;50.13;;;;;;;17.60;54.56;96141.84;5133936;27;20192;-48
2023/01/01 08:13:41;;;;;;;76.37;51.20;;;;;;;17.61;54.03;96146.03;5132939;27;20538;-46
2023/01/01 08:16:08;;;;;;;74.30;52.57;;;;;;;17.39;54.43;96151.63;5133105;27;20683;-47
2023/01/01 08:18:36;;;;;;;79.33;54.60;;;;;;;17.15;54.77;96146.97;5132680;27;20188;-46
2023/01/01 08:21:04;;;;;;;71.60;51.03;;;;;;;16.99;55.08;96152.75;5133309;27;20196;-48
2023/01/01 08:23:30;;;;;;;80.60;54.60;;;;;;;16.87;55.33;96152.09;5133142;27;21256;-47
2023/01/01 08:26:00;;;;;;;75.80;54.93;;;;;;;16.77;55.31;96154.69;5133040;27;20184;-46
2023/01/01 08:28:27;;;;;;;78.47;55.77;;;;;;;16.76;55.27;96150.50;5132697;27;20188;-47
2023/01/01 08:30:54;;;;;;;78.60;54.40;;;;;;;16.84;54.63;96148.97;5132946;27;20211;-49
2023/01/01 08:33:21;;;;;;;78.27;55.87;;;;;;;16.96;54.43;96153.81;5132612;27;20188;-48
2023/01/01 08:35:50;;;;;;;78.40;57.80;;;;;;;17.03;54.25;96154.91;5132846;27;20188;-47
2023/01/01 08:38:17;;;;;;;78.97;56.67;;;;;;;17.07;53.97;96147.69;5132599;27;20184;-48
2023/01/01 08:40:43;;;;;;;83.27;57.97;;;;;;;17.10;53.82;96154.31;5132394;27;20755;-48
2023/01/01 08:43:10;;;;;;;81.13;55.80;;;;;;;16.89;53.83;96129.50;5132720;27;20220;-48
2023/01/01 08:45:37;;;;;;;92.07;57.30;;;;;;;16.81;53.97;96144.91;5132060;27;20279;-47
2023/01/01 08:48:04;;;;;;;78.17;56.77;;;;;;;16.67;54.31;96153.06;5132780;27;20180;-48
2023/01/01 08:50:31;;;;;;;89.23;57.17;;;;;;;16.49;54.64;96156.38;5131448;27;20184;-48
2023/01/01 08:52:59;;;;;;;90.67;60.40;;;;;;;16.34;54.73;96149.19;5132723;27;20345;-47
2023/01/01 08:55:26;;;;;;;88.63;59.43;;;;;;;16.22;54.99;96148.50;5132326;27;20184;-47
2023/01/01 08:57:53;;;;;;;93.70;59.47;;;;;;;16.11;55.32;96152.03;5132831;27;20185;-50
2023/01/01 09:00:20;;;;;;;88.77;60.60;;;;;;;16.01;55.33;96152.00;5132081;27;20253;-47
2023/01/01 09:02:47;;;;;;;80.17;58.97;;;;;;;15.89;55.50;96147.13;5132540;27;20231;-47
2023/01/01 09:05:14;;;;;;;91.27;64.40;;;;;;;15.80;55.58;96152.16;5132568;27;20176;-47
2023/01/01 09:07:41;;;;;;;92.47;64.30;;;;;;;15.54;55.76;96113.13;5132913;27;20181;-48
2023/01/01 09:10:09;;;;;;;88.67;60.97;;;;;;;15.63;55.79;96139.88;5132292;27;20200;-47
2023/01/01 09:12:36;;;;;;;87.33;60.40;;;;;;;15.46;55.92;96125.88;5133578;27;20181;-46
2023/01/01 09:15:03;;;;;;;91.90;63.27;;;;;;;15.48;55.99;96131.69;5132964;27;20207;-47
2023/01/01 09:17:30;;;;;;;89.17;61.63;;;;;;;15.45;56.19;96133.72;5132396;27;20188;-46
2023/01/01 09:19:57;;;;;;;84.30;58.53;;;;;;;15.42;56.09;96126.25;5133211;27;20199;-46
2023/01/01 09:22:24;;;;;;;88.47;61.20;;;;;;;15.37;56.16;96118.09;5132446;27;20199;-48
2023/01/01 09:24:50;;;;;;;85.97;59.30;;;;;;;15.31;56.15;96115.09;5132185;27;20185;-47
2023/01/01 09:27:18;;;;;;;91.97;64.70;;;;;;;15.24;56.34;96108.00;5131575;27;20292;-48
2023/01/01 09:29:45;;;;;;;90.50;61.67;;;;;;;15.25;56.34;96112.25;5132088;27;20204;-46
2023/01/01 09:32:12;;;;;;;84.70;59.93;;;;;;;15.19;56.30;96102.44;5131623;27;20196;-47
2023/01/01 09:34:39;;;;;;;91.23;63.50;;;;;;;15.14;56.55;96100.25;5132159;27;20185;-47
2023/01/01 09:37:06;;;;;;;86.60;60.50;;;;;;;15.12;56.39;96102.16;5131938;27;20192;-48
2023/01/01 09:39:33;;;;;;;84.07;58.50;;;;;;;14.99;56.59;96080.97;5131555;27;20220;-47
2023/01/01 09:42:34;;;;;;;96.27;62.83;;;;;;;15.08;56.57;96097.41;5131578;27;20227;-48
2023/01/01 09:45:14;;;;;;;90.23;59.73;;;;;;;15.07;56.52;96096.59;5131924;27;20184;-48
2023/01/01 09:47:44;;;;;;;92.97;61.87;;;;;;;15.05;56.75;96090.75;5131678;27;20222;-48
2023/01/01 09:50:14;;;;;;;86.77;60.67;;;;;;;15.03;56.48;96090.88;5131875;27;20192;-48
2023/01/01 09:52:45;;;;;;;85.73;60.43;;;;;;;15.02;56.69;96083.25;5131485;27;20617;-48
2023/01/01 09:55:23;;;;;;;81.07;59.77;;;;;;;14.79;56.68;96044.81;5131675;27;20188;-48
2023/01/01 09:57:51;;;;;;;78.90;58.20;;;;;;;15.04;56.69;96084.78;5131528;27;20192;-47
2023/01/01 10:00:20;;;;;;;86.53;58.77;;;;;;;15.05;56.75;96081.25;5131028;27;20192;-47
2023/01/01 10:03:07;;;;;;;82.77;56.90;;;;;;;15.06;56.43;96084.63;5131439;27;20227;-46
2023/01/01 10:05:43;;;;;;;91.00;60.57;;;;;;;15.06;56.45;96080.28;5132614;27;20188;-48
2023/01/01 10:08:21;;;;;;;86.53;59.77;;;;;;;15.09;56.42;96081.78;5132264;27;20187;-45
2023/01/01 10:10:54;;;;;;;84.00;58.73;;;;;;;15.11;56.54;96079.09;5130161;27;20278;-47
2023/01/01 10:13:28;;;;;;;87.53;59.07;;;;;;;15.10;56.55;96080.84;5131095;27;20184;-46
2023/01/01 10:15:59;;;;;;;84.67;59.47;;;;;;;15.14;56.35;96079.63;5130812;27;20195;-47
2023/01/01 10:18:29;;;;;;;87.50;58.77;;;;;;;15.16;56.38;96077.75;5131180;27;20202;-46
2023/01/01 10:21:02;;;;;;;80.80;56.87;;;;;;;15.14;56.23;96063.38;5131101;27;20237;-46
2023/01/01 10:23:34;;;;;;;85.20;59.53;;;;;;;15.20;56.54;96073.16;5130801;27;20212;-46
2023/01/01 10:26:08;;;;;;;90.47;59.97;;;;;;;15.19;56.25;96068.94;5130857;27;20249;-48
2023/01/01 10:28:45;;;;;;;85.13;56.07;;;;;;;15.27;56.23;96069.91;5130677;27;20200;-47
2023/01/01 10:31:16;;;;;;;81.17;59.73;;;;;;;15.29;56.29;96068.03;5131278;27;20192;-47
2023/01/01 10:33:45;;;;;;;84.83;57.30;;;;;;;15.35;56.27;96071.81;5130551;27;20188;-47
2023/01/01 10:36:17;;;;;;;78.50;55.03;;;;;;;15.37;56.26;96064.78;5130951;27;20196;-48
2023/01/01 10:38:44;;;;;;;82.87;59.07;;;;;;;15.40;56.05;96051.59;5130471;27;20204;-49
2023/01/01 10:41:12;;;;;;;84.97;57.53;;;;;;;15.42;55.99;96054.88;5130522;27;20192;-48
2023/01/01 10:43:40;;;;;;;78.70;55.73;;;;;;;15.42;55.92;96046.34;5130697;27;20223;-47
2023/01/01 10:46:12;;;;;;;77.53;55.13;;;;;;;15.50;55.97;96049.03;5130675;27;20188;-48
2023/01/01 10:48:41;;;;;;;85.07;56.87;;;;;;;15.53;56.08;96041.84;5130649;27;20565;-47
2023/01/01 10:51:14;;;;;;;83.03;57.20;;;;;;;15.59;55.71;96042.25;5130408;27;20190;-46
2023/01/01 10:53:43;;;;;;;79.53;56.80;;;;;;;15.60;55.76;96031.81;5130041;27;20188;-47
2023/01/01 10:56:12;;;;;;;89.30;57.23;;;;;;;15.59;55.97;96022.47;5130064;27;20196;-48
2023/01/01 10:58:45;;;;;;;85.50;57.67;;;;;;;15.67;55.74;96022.63;5130389;27;20199;-46
2023/01/01 11:01:19;;;;;;;83.67;58.93;;;;;;;15.68;55.63;96013.13;5129892;27;20556;-47
2023/01/01 11:04:00;;;;;;;83.27;57.27;;;;;;;15.52;55.73;95978.34;5130209;27;20240;-47
2023/01/01 11:06:31;;;;;;;81.00;55.83;;;;;;;15.77;55.68;96004.56;5129944;27;20200;-48
2023/01/01 11:09:02;;;;;;;82.10;56.80;;;;;;;15.79;55.74;96013.78;5129825;27;20593;-47
2023/01/01 11:11:31;;;;;;;78.43;57.20;;;;;;;15.80;55.77;96005.13;5129726;28;20283;-47
2023/01/01 11:14:03;;;;;;;79.53;56.43;;;;;;;15.84;55.58;95999.66;5128978;27;20196;-46
2023/01/01 11:16:30;;;;;;;77.47;55.07;;;;;;;15.89;55.43;95997.47;5130248;28;20180;-47
2023/01/01 11:19:02;;;;;;;82.93;55.43;;;;;;;15.92;55.51;95998.00;5130376;28;20203;-47
2023/01/01 11:21:30;;;;;;;78.77;55.83;;;;;;;15.93;55.55;95997.09;5129864;28;20192;-47
2023/01/01 11:24:17;;;;;;;81.20;55.33;;;;;;;15.96;55.47;95995.97;5129538;28;20557;-47
2023/01/01 11:26:44;;;;;;;76.17;55.60;;;;;;;15.98;55.45;95991.50;5129822;28;20223;-48
2023/01/01 11:29:23;;;;;;;81.30;56.90;;;;;;;16.00;55.37;95992.16;5130238;28;20287;-47
2023/01/01 11:31:51;;;;;;;78.77;54.37;;;;;;;16.01;55.44;95989.44;5130162;28;20181;-47